Aeroporto :
LOGIN :

Iscrizione | Disclaimer

   EN    FR    IT 

 










Sommario :    VFR   VFR Marginale   IFR   IFR Intensivo   IFR Molto Intensivo
Visibilità : 
Base nubi : 
>= 8 km
>= 3000ft
5 / 8 km
1000 / 3000 ft
1500m / 5 km
500 / 1000 ft
800 / 1500m
200 / 500 ft
< 800m
< 200 ft
Simboli :   Temporali  Nebbia  Neve Forte  Precipitazioni Forti  Vento > 20 kt
SIGMETs :   Varie  Temporali  Ghiacco  Turbolenza  Onda orograficha  Ceneri Vulcaniche







- Altitudine del aeroporto : 20 ft
- Codice IATA : OBN
- Carte del aeroporto


EGEO - Oban

ULTIMO METAR :
  • 211520Z 20011KT 170V260 9999 OVC045 19/10 Q1012

METARs OBSOLETI :
  • 211450Z 35005KT 300V060 9999 SCT046 15/11 Q1012
  • 211420Z 36006KT 330V030 9999 SCT046 14/10 Q1013
  • 211320Z 35006KT 9999 SCT034 14/10 Q1014

TAF TAF EGEO
Valido dal 21 a 15 ore il 21 a 17 ore UTC


211401Z 2115/2117 29006KT 9999 SCT035
BECMG 2115/2117 14010KT
PROB30
TEMPO 2115/2117 6000
Nessun NOTAM noto per questo aeroporto.



MetMap, La meteo Aeronautica in un colpo d'occhio ! - Copyright ORBIFLY Dicembre 2007 - Disclaimer

ORBIFLY MET'MAP TEAM :

Programmazione e sviluppo : Alexandra Zaïnal
Concezione e sviluppo : Baudouin d'Aumeries
Co-Programmazione e sviluppo : Marc-Olivier Méhu
Supporto tecnico e logistico : Manuel Goepfert
Aiuto per la traduzione : Arnaldo La Scala

Contatto : metmap@orbifly.com




FONTI E CREDITI :

   NOAA